Winborn, Mississippi
Current Conditions -  °F | °C
As of 12:35 PM on Monday 20 Oct 2014 (Local Time) from KUOX Reporting Station
Clear Clear  
Wind Chill: 66°   Ceiling: Unl
Heat Index: 66°   Visibility: 10mi
Dew Point: 46°   Wind: 0mph
Humidity: 49%   Direction: NA
Pressure: 30.1"   Gusts: NA
Location:  34.5725°N, 89.3417°W
Report Text: KUOX 201735Z AUTO 00000KT 10SM CLR 19/08 A3010 RMK AO2 PWINO PNO
Loading
Personal Weather Stations






























Interactive Weather Map
Tropical Storm Tracking
New forecast layout! Learn more

10-Day Weather Forecast

Advertisements
Track Severe Weather on mobile